createdAt,value
2023-05-06T00:00:16.541Z,15.0228
2023-05-06T00:01:19.127Z,15.0232
2023-05-06T00:02:21.766Z,14.7917
2023-05-06T00:03:24.488Z,14.8760
2023-05-06T00:04:26.963Z,14.8164
2023-05-06T00:05:29.520Z,14.5303
2023-05-06T00:06:32.086Z,14.3912
2023-05-06T00:07:34.713Z,14.4738
2023-05-06T00:08:37.279Z,14.5089
2023-05-06T00:09:39.896Z,14.4892
2023-05-06T00:10:42.472Z,14.3854
2023-05-06T00:11:45.093Z,14.3974
2023-05-06T00:12:47.684Z,14.3121
2023-05-06T00:13:50.289Z,14.2698
2023-05-06T00:14:52.997Z,14.2581
2023-05-06T00:15:55.514Z,14.2721
2023-05-06T00:16:58.061Z,14.2043
2023-05-06T00:18:00.737Z,14.2390
2023-05-06T00:19:03.262Z,14.2063
2023-05-06T00:20:05.871Z,14.2788
2023-05-06T00:21:08.444Z,14.2295
2023-05-06T00:22:11.076Z,14.2022
2023-05-06T00:23:13.645Z,14.2238
2023-05-06T00:24:16.264Z,14.2601
2023-05-06T00:25:18.860Z,14.2388
2023-05-06T00:26:21.471Z,14.2981
2023-05-06T00:27:24.024Z,14.2223
2023-05-06T00:28:26.653Z,14.3156
2023-05-06T00:29:29.218Z,14.2669
2023-05-06T00:30:31.914Z,14.2086
2023-05-06T00:31:34.480Z,14.2472
2023-05-06T00:32:37.065Z,14.2410
2023-05-06T00:33:39.615Z,14.3780
2023-05-06T00:34:42.225Z,14.3939
2023-05-06T00:35:44.812Z,14.1969
2023-05-06T00:36:47.423Z,14.3109
2023-05-06T00:37:50.000Z,14.4612
2023-05-06T00:38:52.612Z,14.3359
2023-05-06T00:39:55.179Z,14.4060
2023-05-06T00:40:57.797Z,14.5181
2023-05-06T00:43:15.276Z,14.2075
2023-05-06T00:44:17.909Z,14.1254
2023-05-06T00:45:20.459Z,14.0868
2023-05-06T00:46:23.195Z,14.0178
2023-05-06T00:47:25.674Z,13.9574
2023-05-06T00:48:28.290Z,13.9206
2023-05-06T00:49:31.183Z,13.8668
2023-05-06T00:50:33.475Z,13.8296
2023-05-06T00:51:36.049Z,13.7953
2023-05-06T00:52:38.742Z,13.7932
2023-05-06T00:53:41.253Z,13.7643
2023-05-06T00:54:43.885Z,13.7680
2023-05-06T00:55:46.457Z,13.7682
2023-05-06T00:56:49.093Z,13.7442
2023-05-06T00:57:51.659Z,13.7244
2023-05-06T00:58:54.279Z,13.7341
2023-05-06T00:59:56.860Z,13.7125
2023-05-06T01:00:59.511Z,13.7170
2023-05-06T01:02:02.202Z,13.7329
2023-05-06T01:03:04.760Z,13.7341
2023-05-06T01:04:07.283Z,13.7285
2023-05-06T01:05:10.064Z,13.7257
2023-05-06T01:06:12.466Z,13.7170
2023-05-06T01:07:15.061Z,13.7417
2023-05-06T01:08:17.660Z,13.7937
2023-05-06T01:09:20.260Z,13.7783
2023-05-06T01:10:22.841Z,13.7924
2023-05-06T01:11:25.621Z,13.8099
2023-05-06T01:12:28.032Z,13.8150
2023-05-06T01:13:30.645Z,13.8304
2023-05-06T01:14:33.228Z,13.8495
2023-05-06T01:15:35.848Z,13.8183
2023-05-06T01:16:38.438Z,13.9483
2023-05-06T01:17:41.152Z,13.9323
2023-05-06T01:18:43.627Z,13.9296
2023-05-06T01:19:46.240Z,14.0617
2023-05-06T01:20:48.804Z,14.0973
2023-05-06T01:21:51.428Z,14.0897
2023-05-06T01:22:53.986Z,14.1061
2023-05-06T01:23:56.618Z,14.1765
2023-05-06T01:24:59.186Z,14.2398
2023-05-06T01:26:01.806Z,14.1106
2023-05-06T01:27:04.422Z,14.2293
2023-05-06T01:28:06.992Z,14.2852
2023-05-06T01:29:09.555Z,14.2634
2023-05-06T01:30:12.195Z,14.1989
2023-05-06T01:31:14.802Z,14.3088
2023-05-06T01:32:17.361Z,14.2821
2023-05-06T01:33:20.124Z,14.1601
2023-05-06T01:34:22.825Z,14.1702
2023-05-06T01:35:25.153Z,14.1449
2023-05-06T01:36:27.739Z,14.2119
2023-05-06T01:37:30.308Z,14.0498
2023-05-06T01:38:32.941Z,13.9337
2023-05-06T01:39:35.516Z,13.8797
2023-05-06T01:40:38.116Z,13.8280
2023-05-06T01:41:40.688Z,13.8008
2023-05-06T01:42:43.323Z,13.7764
2023-05-06T01:43:45.883Z,13.6877
2023-05-06T01:44:48.507Z,13.6223
2023-05-06T01:45:51.082Z,13.5500
2023-05-06T01:46:53.724Z,13.5525
2023-05-06T01:47:56.331Z,13.5562
2023-05-06T01:48:59.004Z,13.5480
2023-05-06T01:50:01.484Z,13.6028
2023-05-06T01:51:04.138Z,13.6306
2023-05-06T01:52:06.692Z,13.6262
2023-05-06T01:53:09.307Z,13.6242
2023-05-06T01:54:11.879Z,13.6899
2023-05-06T01:55:14.499Z,13.6359
2023-05-06T01:56:17.076Z,13.7807
2023-05-06T01:57:19.695Z,13.7772
2023-05-06T01:58:22.259Z,13.7546
2023-05-06T01:59:24.890Z,13.8658
2023-05-06T02:00:27.457Z,13.8025
2023-05-06T02:01:30.109Z,13.8409
2023-05-06T02:02:32.717Z,13.9379
2023-05-06T02:03:35.315Z,13.9455
2023-05-06T02:04:37.857Z,13.8923
2023-05-06T02:05:40.479Z,13.9740
2023-05-06T02:06:43.099Z,13.9307
2023-05-06T02:07:45.880Z,14.0478
2023-05-06T02:08:48.272Z,14.1108
2023-05-06T02:09:50.832Z,13.9379
2023-05-06T02:10:53.458Z,13.8473
2023-05-06T02:11:56.049Z,13.7893
2023-05-06T02:12:58.714Z,13.8004
2023-05-06T02:14:01.227Z,13.7626
2023-05-06T02:15:03.888Z,13.8263
2023-05-06T02:16:06.453Z,13.8204
2023-05-06T02:17:09.323Z,13.9687
2023-05-06T02:18:11.597Z,13.9874
2023-05-06T02:19:14.226Z,14.0695
2023-05-06T02:20:16.873Z,13.9993
2023-05-06T02:21:19.421Z,13.9315
2023-05-06T02:22:22.002Z,14.0685
2023-05-06T02:23:24.609Z,13.9405
2023-05-06T02:24:27.186Z,13.8918
2023-05-06T02:27:13.599Z,13.9019
2023-05-06T02:28:16.209Z,13.8399
2023-05-06T02:29:18.806Z,13.7437
2023-05-06T02:30:21.428Z,13.5544
2023-05-06T02:31:24.031Z,13.4757
2023-05-06T02:32:26.650Z,13.4529
2023-05-06T02:33:29.198Z,13.4786
2023-05-06T02:34:31.827Z,13.5693
2023-05-06T02:35:34.403Z,13.4171
2023-05-06T02:36:37.032Z,13.5022
2023-05-06T02:37:39.604Z,13.4699
2023-05-06T02:38:42.236Z,13.4689
2023-05-06T02:39:44.820Z,13.4765
2023-05-06T02:40:47.424Z,13.5065
2023-05-06T02:41:49.998Z,13.5120
2023-05-06T02:42:52.721Z,13.5728
2023-05-06T02:43:55.205Z,13.5396
2023-05-06T02:44:57.833Z,13.5090
2023-05-06T02:46:00.768Z,13.4888
2023-05-06T02:47:03.018Z,13.5055
2023-05-06T02:48:05.651Z,13.5055
2023-05-06T02:49:08.225Z,13.5168
2023-05-06T02:50:10.798Z,13.5303
2023-05-06T02:51:13.414Z,13.5328
2023-05-06T02:52:15.996Z,13.5404
2023-05-06T02:53:18.625Z,13.5237
2023-05-06T02:54:21.221Z,13.5424
2023-05-06T02:55:23.814Z,13.5316
2023-05-06T02:56:26.398Z,13.5531
2023-05-06T02:57:29.023Z,13.5217
2023-05-06T02:58:31.593Z,13.5131
2023-05-06T02:59:34.227Z,13.5219
2023-05-06T03:00:36.817Z,13.5381
2023-05-06T03:01:39.520Z,13.5153
2023-05-06T03:02:42.070Z,13.5597
2023-05-06T03:03:44.637Z,13.5932
2023-05-06T03:04:47.190Z,13.5357
2023-05-06T03:05:49.812Z,13.5313
2023-05-06T03:06:52.378Z,13.4853
2023-05-06T03:07:55.004Z,13.5480
2023-05-06T03:08:57.581Z,13.4925
2023-05-06T03:10:00.211Z,13.5392
2023-05-06T03:11:02.797Z,13.5585
2023-05-06T03:12:05.395Z,13.5767
2023-05-06T03:13:08.058Z,13.5044
2023-05-06T03:14:10.603Z,13.5628
2023-05-06T03:15:13.238Z,13.6515
2023-05-06T03:16:15.831Z,13.6912
2023-05-06T03:17:18.364Z,13.7049
2023-05-06T03:18:20.978Z,13.8013
2023-05-06T03:19:23.541Z,13.6197
2023-05-06T03:20:26.174Z,13.6197
2023-05-06T03:21:28.790Z,13.6135
2023-05-06T03:22:31.421Z,13.6696
2023-05-06T03:23:33.936Z,13.5402
2023-05-06T03:24:36.545Z,13.5726
2023-05-06T03:25:39.111Z,13.4323
2023-05-06T03:26:41.785Z,13.5326
2023-05-06T03:27:44.309Z,13.4669
2023-05-06T03:28:46.930Z,13.4130
2023-05-06T03:29:49.504Z,13.4130
2023-05-06T03:30:52.108Z,13.4443
2023-05-06T03:31:54.842Z,13.3448
2023-05-06T03:32:57.318Z,13.2680
2023-05-06T03:33:59.883Z,13.2582
2023-05-06T03:35:02.505Z,13.3231
2023-05-06T03:36:05.075Z,13.5077
2023-05-06T03:37:07.696Z,13.4233
2023-05-06T03:38:10.278Z,13.3467
2023-05-06T03:39:12.877Z,13.4019
2023-05-06T03:40:15.454Z,13.4180
2023-05-06T03:43:11.509Z,13.5218
2023-05-06T03:44:14.104Z,13.1575
2023-05-06T03:45:16.718Z,13.0271
2023-05-06T03:46:19.335Z,12.9235
2023-05-06T03:47:21.945Z,13.0248
2023-05-06T03:48:24.526Z,13.0850
2023-05-06T03:49:27.145Z,13.0119
2023-05-06T03:50:29.709Z,13.2349
2023-05-06T03:51:32.370Z,13.3151
2023-05-06T03:52:34.919Z,13.0509
2023-05-06T03:53:37.823Z,12.8634
2023-05-06T03:54:40.127Z,12.7600
2023-05-06T03:55:42.758Z,12.6869
2023-05-06T03:56:45.323Z,12.8790
2023-05-06T03:57:47.957Z,12.8467
2023-05-06T03:58:50.535Z,12.8479
2023-05-06T03:59:53.155Z,12.9556
2023-05-06T04:00:55.741Z,13.0990
2023-05-06T04:01:58.432Z,13.0164
2023-05-06T04:03:01.027Z,13.0248
2023-05-06T04:04:03.605Z,12.8155
2023-05-06T04:05:06.148Z,12.6658
2023-05-06T04:06:08.777Z,12.6010
2023-05-06T04:07:11.353Z,12.5511
2023-05-06T04:08:13.984Z,12.5158
2023-05-06T04:09:16.632Z,12.4903
2023-05-06T04:10:19.186Z,12.5107
2023-05-06T04:11:21.767Z,12.5191
2023-05-06T04:12:24.394Z,12.5117
2023-05-06T04:13:26.965Z,12.4990
2023-05-06T04:14:29.598Z,12.4823
2023-05-06T04:15:32.490Z,12.4760
2023-05-06T04:16:34.842Z,12.4484
2023-05-06T04:17:37.457Z,12.4640
2023-05-06T04:18:40.032Z,12.4704
2023-05-06T04:19:42.597Z,12.4846
2023-05-06T04:20:45.230Z,12.5066
2023-05-06T04:21:47.824Z,12.5055
2023-05-06T04:22:50.428Z,12.5179
2023-05-06T04:23:53.018Z,12.5024
2023-05-06T04:24:55.756Z,12.5238
2023-05-06T04:25:58.251Z,12.5275
2023-05-06T04:27:00.836Z,12.5269
2023-05-06T04:28:03.428Z,12.5189
2023-05-06T04:29:06.042Z,12.5199
2023-05-06T04:30:08.654Z,12.5020
2023-05-06T04:31:11.299Z,12.4965
2023-05-06T04:32:13.829Z,12.4967
2023-05-06T04:33:16.471Z,12.5064
2023-05-06T04:34:19.040Z,12.5053
2023-05-06T04:35:21.676Z,12.4805
2023-05-06T04:36:24.248Z,12.4967
2023-05-06T04:37:26.865Z,12.5248
2023-05-06T04:38:29.459Z,12.5409
2023-05-06T04:39:32.076Z,12.5698
2023-05-06T04:40:34.671Z,12.5721
2023-05-06T04:41:37.283Z,12.6027
2023-05-06T04:42:39.862Z,12.6329
2023-05-06T04:43:42.481Z,12.6333
2023-05-06T04:44:45.066Z,12.5967
2023-05-06T04:45:47.707Z,12.6528
2023-05-06T04:46:50.266Z,12.7274
2023-05-06T04:47:52.950Z,12.7331
2023-05-06T04:48:55.481Z,12.7461
2023-05-06T04:49:58.099Z,12.7457
2023-05-06T04:51:00.681Z,12.7072
2023-05-06T04:52:03.313Z,12.7448
2023-05-06T04:53:05.878Z,12.8038
2023-05-06T04:54:08.508Z,12.8609
2023-05-06T04:55:11.343Z,12.8093
2023-05-06T04:56:13.698Z,12.7635
2023-05-06T04:57:16.270Z,12.7584
2023-05-06T04:58:18.899Z,12.7982
2023-05-06T04:59:21.474Z,12.7857
2023-05-06T05:00:24.093Z,12.7617
2023-05-06T05:01:26.683Z,12.9190
2023-05-06T05:02:29.391Z,12.8931
2023-05-06T05:03:32.046Z,12.8985
2023-05-06T05:04:34.513Z,12.8999
2023-05-06T05:05:37.058Z,12.9523
2023-05-06T05:06:39.679Z,12.9096
2023-05-06T05:07:42.273Z,12.8716
2023-05-06T05:08:44.885Z,12.7650
2023-05-06T05:09:47.452Z,12.6573
2023-05-06T05:10:50.083Z,12.6236
2023-05-06T05:11:52.761Z,12.6187
2023-05-06T05:12:55.313Z,12.6218
2023-05-06T05:13:59.455Z,12.6945
2023-05-06T05:15:00.500Z,12.7489
2023-05-06T05:16:03.062Z,12.7489
2023-05-06T05:17:05.771Z,12.8447
2023-05-06T05:18:08.305Z,12.9246
2023-05-06T05:19:10.888Z,12.9092
2023-05-06T05:20:13.454Z,12.9085
2023-05-06T05:21:16.084Z,12.9587
2023-05-06T05:22:18.649Z,12.9913
2023-05-06T05:23:21.299Z,12.9891
2023-05-06T05:24:23.858Z,13.0164
2023-05-06T05:25:26.489Z,13.0402
2023-05-06T05:26:29.049Z,13.1487
2023-05-06T05:27:31.737Z,13.2136
2023-05-06T05:28:34.245Z,13.1803
2023-05-06T05:29:36.876Z,13.1988
2023-05-06T05:30:39.440Z,13.2485
2023-05-06T05:31:42.167Z,13.2421
2023-05-06T05:32:44.652Z,13.2818
2023-05-06T05:35:02.145Z,13.2912
2023-05-06T05:36:04.768Z,13.4087
2023-05-06T05:37:07.336Z,13.4475
2023-05-06T05:38:09.967Z,13.4527
2023-05-06T05:39:12.565Z,13.4192
2023-05-06T05:40:15.167Z,13.4118
2023-05-06T05:41:17.797Z,13.4227
2023-05-06T05:42:20.361Z,13.4603
2023-05-06T05:43:22.931Z,13.4878
2023-05-06T05:44:25.580Z,13.5270
2023-05-06T05:45:28.134Z,13.5490
2023-05-06T05:46:30.770Z,13.5885
2023-05-06T05:47:33.370Z,13.6186
2023-05-06T05:48:35.949Z,13.6698
2023-05-06T05:49:38.543Z,13.6768
2023-05-06T05:50:41.166Z,13.6868
2023-05-06T05:51:43.711Z,13.7550
2023-05-06T05:52:46.343Z,13.7988
2023-05-06T05:53:48.929Z,13.8084
2023-05-06T05:54:51.531Z,13.9192
2023-05-06T05:55:54.313Z,14.0219
2023-05-06T05:56:56.732Z,14.0983
2023-05-06T05:57:59.307Z,14.0845
2023-05-06T05:59:01.907Z,14.0708
2023-05-06T06:00:04.485Z,14.0876
2023-05-06T06:01:07.106Z,14.1546
2023-05-06T06:02:09.668Z,14.1817
2023-05-06T06:03:12.428Z,14.1874
2023-05-06T06:04:15.007Z,14.2010
2023-05-06T06:05:17.486Z,14.1932
2023-05-06T06:06:20.063Z,14.1710
2023-05-06T06:07:22.680Z,14.2104
2023-05-06T06:08:25.251Z,14.2310
2023-05-06T06:09:27.890Z,14.2764
2023-05-06T06:10:30.455Z,14.3361
2023-05-06T06:11:33.080Z,14.3037
2023-05-06T06:12:35.692Z,14.4009
2023-05-06T06:15:36.582Z,14.4230
2023-05-06T06:16:39.150Z,14.7539
2023-05-06T06:17:41.755Z,14.9524
2023-05-06T06:18:44.224Z,15.1755
2023-05-06T06:19:46.845Z,15.3535
2023-05-06T06:20:51.692Z,15.5873
2023-05-06T06:21:52.025Z,15.9153
2023-05-06T06:22:54.600Z,16.1696
2023-05-06T06:23:57.200Z,16.1536
2023-05-06T06:24:59.775Z,16.3473
2023-05-06T06:26:02.385Z,16.4517
2023-05-06T06:27:04.990Z,16.3568
2023-05-06T06:28:07.599Z,16.4646
2023-05-06T06:29:10.158Z,16.4640
2023-05-06T06:30:12.759Z,16.5969
2023-05-06T06:31:15.520Z,16.6380
2023-05-06T06:32:17.938Z,16.8253
2023-05-06T06:33:20.501Z,16.7345
2023-05-06T06:34:23.126Z,16.7643
2023-05-06T06:35:25.696Z,16.7855
2023-05-06T06:36:28.298Z,17.0044
2023-05-06T06:37:30.859Z,17.0278
2023-05-06T06:38:33.513Z,16.9418
2023-05-06T06:39:36.042Z,16.9397
2023-05-06T06:40:38.659Z,16.6688
2023-05-06T06:41:41.217Z,16.7154
2023-05-06T06:42:43.841Z,16.5609
2023-05-06T06:43:46.410Z,16.4675
2023-05-06T06:44:49.017Z,16.2117
2023-05-06T06:45:51.622Z,16.2715
2023-05-06T06:48:04.443Z,16.3092
2023-05-06T06:49:06.719Z,16.3333
2023-05-06T06:50:09.341Z,16.4402
2023-05-06T06:51:11.902Z,16.3804
2023-05-06T06:52:14.519Z,16.3594
2023-05-06T06:53:17.076Z,16.4024
2023-05-06T06:54:19.709Z,16.5511
2023-05-06T06:55:22.274Z,16.5190
2023-05-06T06:56:24.885Z,16.4480
2023-05-06T06:57:27.456Z,16.4890
2023-05-06T06:58:30.060Z,16.5116
2023-05-06T06:59:32.654Z,16.6441
2023-05-06T07:00:35.266Z,16.4675
2023-05-06T07:01:38.044Z,16.4361
2023-05-06T07:02:40.487Z,16.4377
2023-05-06T07:03:43.181Z,16.4954
2023-05-06T07:04:45.661Z,16.4769
2023-05-06T07:05:48.190Z,16.3485
2023-05-06T07:06:50.807Z,16.4687
2023-05-06T07:07:53.381Z,16.5307
2023-05-06T07:08:56.003Z,16.4350
2023-05-06T07:09:58.553Z,16.4348
2023-05-06T07:11:01.164Z,16.5297
2023-05-06T07:12:03.737Z,16.5427
2023-05-06T07:13:06.401Z,16.6723
2023-05-06T07:14:08.922Z,16.8762
2023-05-06T07:15:11.812Z,16.9740
2023-05-06T07:16:14.122Z,16.8337
2023-05-06T07:17:16.798Z,16.8783
2023-05-06T07:18:19.292Z,16.7300
2023-05-06T07:19:21.896Z,16.7867
2023-05-06T07:20:24.470Z,16.7259
2023-05-06T07:21:27.075Z,16.7520
2023-05-06T07:22:29.640Z,16.6743
2023-05-06T07:23:32.407Z,16.6474
2023-05-06T07:24:34.845Z,16.6396
2023-05-06T07:25:37.461Z,16.6215
2023-05-06T07:26:40.027Z,16.6283
2023-05-06T07:27:42.635Z,16.6423
2023-05-06T07:28:45.189Z,16.6782
2023-05-06T07:29:47.808Z,16.6472
2023-05-06T07:30:50.414Z,16.6203
2023-05-06T07:31:52.990Z,16.6807
2023-05-06T07:32:55.590Z,16.6571
2023-05-06T07:33:58.159Z,16.7485
2023-05-06T07:35:00.823Z,16.7553
2023-05-06T07:36:03.392Z,16.7544
2023-05-06T07:37:05.914Z,16.8619
2023-05-06T07:38:08.530Z,16.9229
2023-05-06T07:39:11.102Z,17.0749
2023-05-06T07:40:13.722Z,17.3107
2023-05-06T07:41:16.293Z,17.1749
2023-05-06T07:42:18.881Z,17.1640
2023-05-06T07:43:21.446Z,17.1295
2023-05-06T07:44:24.063Z,17.2162
2023-05-06T07:45:26.631Z,17.3912
2023-05-06T07:46:29.311Z,17.4009
2023-05-06T07:47:32.007Z,17.5894
2023-05-06T07:48:34.414Z,17.5677
2023-05-06T07:49:36.995Z,17.4290
2023-05-06T07:50:39.733Z,17.5884
2023-05-06T07:51:42.164Z,17.4395
2023-05-06T07:52:44.830Z,17.3438
2023-05-06T07:53:47.528Z,17.3719
2023-05-06T07:54:49.947Z,17.4974
2023-05-06T07:55:52.512Z,17.4582
2023-05-06T07:56:55.120Z,17.3323
2023-05-06T07:57:57.683Z,17.4939
2023-05-06T07:59:00.296Z,17.6552
2023-05-06T08:00:02.867Z,17.5611
2023-05-06T08:01:05.472Z,17.5159
2023-05-06T08:02:08.097Z,17.6272
2023-05-06T08:03:10.844Z,17.7556
2023-05-06T08:04:13.312Z,17.6165
2023-05-06T08:05:15.865Z,17.5036
2023-05-06T08:06:18.400Z,17.4972
2023-05-06T08:07:21.013Z,17.5488
2023-05-06T08:08:23.578Z,17.4668
2023-05-06T08:09:26.177Z,17.3528
2023-05-06T08:10:29.001Z,17.2914
2023-05-06T08:11:31.350Z,17.2797
2023-05-06T08:12:33.926Z,17.1628
2023-05-06T08:13:36.542Z,17.2154
2023-05-06T08:14:39.103Z,17.3386
2023-05-06T08:15:41.713Z,17.3323
2023-05-06T08:16:44.348Z,17.4093
2023-05-06T08:17:46.918Z,17.3051
2023-05-06T08:18:49.452Z,17.3846
2023-05-06T08:19:52.073Z,17.3495
2023-05-06T08:20:54.640Z,17.2803
2023-05-06T08:21:57.334Z,17.2659
2023-05-06T08:22:59.800Z,17.3136
2023-05-06T08:24:02.407Z,17.1630
2023-05-06T08:25:04.987Z,17.3857
2023-05-06T08:26:07.590Z,17.1994
2023-05-06T08:27:10.152Z,17.2922
2023-05-06T08:28:12.757Z,17.3608
2023-05-06T08:29:15.320Z,17.2427
2023-05-06T08:30:17.936Z,17.2250
2023-05-06T08:31:20.524Z,17.1499
2023-05-06T08:32:23.224Z,17.1336
2023-05-06T08:33:25.692Z,17.1197
2023-05-06T08:34:28.288Z,17.1053
2023-05-06T08:35:30.847Z,17.1392
2023-05-06T08:36:33.486Z,17.0712
2023-05-06T08:37:36.110Z,17.0400
2023-05-06T08:40:27.126Z,17.0836
2023-05-06T08:41:29.691Z,17.0942
2023-05-06T08:42:32.304Z,17.4672
2023-05-06T08:43:34.877Z,17.7003
2023-05-06T08:46:11.563Z,17.9925
2023-05-06T08:47:14.092Z,18.2780
2023-05-06T08:48:16.697Z,18.1568
2023-05-06T08:49:19.265Z,17.9392
2023-05-06T08:50:21.876Z,17.9129
2023-05-06T08:51:26.072Z,18.2291
2023-05-06T08:52:27.088Z,18.4162
2023-05-06T08:53:29.866Z,18.3314
2023-05-06T08:54:32.226Z,18.3258
2023-05-06T08:55:34.910Z,18.2515
2023-05-06T08:56:37.405Z,18.2424
2023-05-06T08:57:39.981Z,18.3833
2023-05-06T08:58:42.584Z,18.5468
2023-05-06T08:59:45.163Z,18.6526
2023-05-06T09:00:47.763Z,18.7623
2023-05-06T09:01:50.301Z,18.7956
2023-05-06T09:02:53.019Z,18.7385
2023-05-06T09:03:55.487Z,18.7539
2023-05-06T09:04:58.125Z,18.6863
2023-05-06T09:06:00.645Z,18.8474
2023-05-06T09:07:03.255Z,18.9375
2023-05-06T09:08:05.838Z,18.9094
2023-05-06T09:09:08.479Z,18.7872
2023-05-06T09:10:11.185Z,18.7751
2023-05-06T09:11:13.605Z,18.8445
2023-05-06T09:12:16.154Z,18.8891
2023-05-06T09:13:18.869Z,18.8519
2023-05-06T09:14:21.324Z,18.8077
2023-05-06T09:15:23.938Z,18.7108
2023-05-06T09:16:26.548Z,18.8406
2023-05-06T09:17:29.112Z,18.7804
2023-05-06T09:18:31.675Z,18.6401
2023-05-06T09:19:34.295Z,18.6343
2023-05-06T09:20:36.947Z,18.7915
2023-05-06T09:21:39.465Z,18.9305
2023-05-06T09:22:42.034Z,19.0483
2023-05-06T09:23:44.664Z,19.1230
2023-05-06T09:24:47.279Z,18.8962
2023-05-06T09:25:49.879Z,19.0922
2023-05-06T09:26:52.363Z,19.1834
2023-05-06T09:27:54.975Z,19.1347
2023-05-06T09:28:57.542Z,19.2403
2023-05-06T09:30:00.263Z,19.1171
2023-05-06T09:31:02.741Z,19.0324
2023-05-06T09:32:05.311Z,18.9006
2023-05-06T09:33:07.910Z,18.7841
2023-05-06T09:34:10.596Z,18.6054
2023-05-06T09:35:13.229Z,19.0142
2023-05-06T09:37:30.368Z,18.9389
2023-05-06T09:38:32.986Z,18.9104
2023-05-06T09:39:35.546Z,18.6442
2023-05-06T09:40:38.228Z,18.8804
2023-05-06T09:41:40.734Z,19.3050
2023-05-06T09:42:43.337Z,19.1742
2023-05-06T09:43:45.944Z,18.9566
2023-05-06T09:44:48.522Z,19.2276
2023-05-06T09:45:51.124Z,18.9683
2023-05-06T09:46:53.686Z,18.7570
2023-05-06T09:47:56.334Z,18.7868
2023-05-06T09:48:58.894Z,18.8806
2023-05-06T09:50:01.483Z,18.6438
2023-05-06T09:51:04.059Z,18.9534
2023-05-06T09:52:06.630Z,19.3416
2023-05-06T09:53:09.226Z,19.2378
2023-05-06T09:54:11.792Z,19.2627
2023-05-06T09:55:14.746Z,19.0591
2023-05-06T09:56:17.181Z,19.3578
2023-05-06T09:57:19.580Z,19.2896
2023-05-06T09:58:22.139Z,19.5688
2023-05-06T09:59:24.757Z,19.2627
2023-05-06T10:00:27.327Z,19.1300
2023-05-06T10:01:36.893Z,19.0236
2023-05-06T10:02:32.654Z,19.1401
2023-05-06T10:03:35.223Z,19.5985
2023-05-06T10:04:37.934Z,19.6294
2023-05-06T10:05:40.276Z,19.6528
2023-05-06T10:06:42.826Z,19.5445
2023-05-06T10:07:45.443Z,19.6563
2023-05-06T10:08:47.994Z,19.6534
2023-05-06T10:09:50.609Z,19.7988
2023-05-06T10:10:53.153Z,19.7448
2023-05-06T10:11:55.894Z,19.8978
2023-05-06T10:12:58.372Z,19.8009
2023-05-06T10:14:00.949Z,19.6881
2023-05-06T10:15:03.511Z,19.7826
2023-05-06T10:16:06.143Z,19.6458
2023-05-06T10:17:08.960Z,19.6026
2023-05-06T10:18:11.295Z,19.6433
2023-05-06T10:19:13.804Z,19.7405
2023-05-06T10:20:16.457Z,19.7968
2023-05-06T10:21:18.978Z,19.7770
2023-05-06T10:22:21.571Z,19.8849
2023-05-06T10:23:24.131Z,19.8567
2023-05-06T10:24:26.740Z,19.9375
2023-05-06T10:25:29.305Z,19.8311
2023-05-06T10:26:31.898Z,19.8420
2023-05-06T10:27:34.476Z,19.8150
2023-05-06T10:28:37.110Z,19.7719
2023-05-06T10:29:39.610Z,19.7411
2023-05-06T10:30:42.238Z,19.7251
2023-05-06T10:31:44.819Z,19.7084
2023-05-06T10:32:47.399Z,19.7772
2023-05-06T10:33:49.959Z,19.8761
2023-05-06T10:34:52.540Z,19.9473
2023-05-06T10:35:55.096Z,19.9699
2023-05-06T10:36:57.843Z,19.9970
2023-05-06T10:38:00.269Z,20.0755
2023-05-06T10:39:02.870Z,19.9808
2023-05-06T10:40:05.433Z,19.9627
2023-05-06T10:41:08.032Z,20.0098
2023-05-06T10:42:10.589Z,20.0196
2023-05-06T10:43:13.257Z,19.9876
2023-05-06T10:44:15.752Z,20.0092
2023-05-06T10:45:18.602Z,19.9806
2023-05-06T10:46:20.924Z,19.9151
2023-05-06T10:47:23.575Z,19.8268
2023-05-06T10:48:26.088Z,19.9997
2023-05-06T10:49:28.685Z,19.9691
2023-05-06T10:50:31.237Z,20.0242
2023-05-06T10:51:33.859Z,20.0552
2023-05-06T10:52:36.423Z,20.0659
2023-05-06T10:53:39.026Z,19.9327
2023-05-06T10:54:41.564Z,19.9235
2023-05-06T10:55:44.174Z,19.9557
2023-05-06T10:56:46.744Z,19.9923
2023-05-06T10:57:49.349Z,19.8442
2023-05-06T10:58:51.966Z,20.0572
2023-05-06T10:59:54.512Z,20.2029
2023-05-06T11:00:57.076Z,20.0509
2023-05-06T11:01:59.839Z,20.1897
2023-05-06T11:03:02.412Z,20.2382
2023-05-06T11:04:04.835Z,20.1864
2023-05-06T11:05:07.370Z,19.9607
2023-05-06T11:06:09.972Z,20.0909
2023-05-06T11:07:12.545Z,20.3442
2023-05-06T11:08:15.131Z,20.4884
2023-05-06T11:09:17.754Z,20.3600
2023-05-06T11:10:20.298Z,20.3625
2023-05-06T11:11:22.856Z,20.2493
2023-05-06T11:12:25.446Z,20.2008
2023-05-06T11:13:28.219Z,20.3234
2023-05-06T11:16:23.829Z,20.2588
2023-05-06T11:17:26.446Z,20.0712
2023-05-06T11:18:28.982Z,20.0498
2023-05-06T11:19:31.612Z,19.7869
2023-05-06T11:22:12.954Z,19.6500
2023-05-06T11:23:15.548Z,19.6055
2023-05-06T11:25:32.836Z,19.7366
2023-05-06T11:26:35.437Z,20.0527
2023-05-06T11:27:38.005Z,20.0359
2023-05-06T11:28:40.610Z,19.8569
2023-05-06T11:29:43.179Z,19.7752
2023-05-06T11:30:45.817Z,19.6000
2023-05-06T11:31:48.418Z,19.3835
2023-05-06T11:32:51.062Z,19.5614
2023-05-06T11:33:53.540Z,19.8865
2023-05-06T11:34:56.136Z,19.5938
2023-05-06T11:35:58.692Z,19.4743
2023-05-06T11:37:01.302Z,19.4950
2023-05-06T11:38:03.908Z,20.2176
2023-05-06T11:39:06.460Z,20.3432
2023-05-06T11:40:09.177Z,20.4003
2023-05-06T11:41:11.629Z,20.3853
2023-05-06T11:42:14.190Z,20.3259
2023-05-06T11:43:16.846Z,20.4646
2023-05-06T11:44:19.362Z,20.3259
2023-05-06T11:45:21.975Z,20.3064
2023-05-06T11:46:24.607Z,20.1127
2023-05-06T11:47:27.222Z,20.1671
2023-05-06T11:48:29.689Z,20.3754
2023-05-06T11:49:32.299Z,20.3787
2023-05-06T11:50:34.859Z,20.3563
2023-05-06T11:51:37.463Z,20.4019
2023-05-06T11:52:40.045Z,20.4496
2023-05-06T11:53:42.611Z,20.2583
2023-05-06T11:54:45.214Z,20.4031
2023-05-06T11:55:47.775Z,20.3980
2023-05-06T11:56:50.333Z,20.3206
2023-05-06T11:57:52.934Z,20.1653
2023-05-06T11:58:55.492Z,20.0917
2023-05-06T11:59:58.109Z,20.1453
2023-05-06T12:01:00.673Z,19.8586
2023-05-06T12:02:03.282Z,20.1519
2023-05-06T12:03:05.963Z,19.9159
2023-05-06T12:04:08.676Z,19.8222
2023-05-06T12:05:11.002Z,20.1671
2023-05-06T12:06:13.616Z,20.1708
2023-05-06T12:07:16.176Z,20.2548
2023-05-06T12:08:26.821Z,20.3629
2023-05-06T12:09:21.327Z,20.4348
2023-05-06T12:10:23.923Z,20.2439
2023-05-06T12:11:26.483Z,20.4210
2023-05-06T12:12:29.091Z,20.3191
2023-05-06T12:13:31.653Z,20.0915
2023-05-06T12:14:34.255Z,20.0377
2023-05-06T12:15:36.814Z,19.9196
2023-05-06T12:16:39.434Z,19.8475
2023-05-06T12:17:41.992Z,19.8590
2023-05-06T12:18:44.652Z,19.7816
2023-05-06T12:19:47.198Z,19.8600
2023-05-06T12:20:49.740Z,20.1030
2023-05-06T12:21:52.307Z,19.8228
2023-05-06T12:22:55.509Z,20.1182
2023-05-06T12:23:57.492Z,19.8945
2023-05-06T12:25:00.093Z,19.8300
2023-05-06T12:26:02.636Z,19.6928
2023-05-06T12:27:05.239Z,19.7647
2023-05-06T12:28:07.791Z,19.8407
2023-05-06T12:29:10.398Z,19.9999
2023-05-06T12:30:13.179Z,20.4736
2023-05-06T12:31:15.669Z,20.6911
2023-05-06T12:32:18.116Z,20.4847
2023-05-06T12:33:20.716Z,20.8784
2023-05-06T12:34:23.360Z,21.1681
2023-05-06T12:35:25.891Z,20.6932
2023-05-06T12:36:28.425Z,20.8581
2023-05-06T12:37:31.053Z,21.2679
2023-05-06T12:38:33.589Z,21.4729
2023-05-06T12:39:36.209Z,21.3193
2023-05-06T12:40:38.739Z,21.0280
2023-05-06T12:41:41.361Z,20.9054
2023-05-06T12:42:43.904Z,20.8524
2023-05-06T12:43:46.506Z,21.1104
2023-05-06T12:44:49.055Z,21.0798
2023-05-06T12:45:51.686Z,20.9752
2023-05-06T12:46:54.212Z,20.9692
2023-05-06T12:47:56.855Z,21.1660
2023-05-06T12:48:59.375Z,21.1808
2023-05-06T12:50:02.046Z,21.3932
2023-05-06T12:51:04.534Z,21.4920
2023-05-06T12:52:07.144Z,21.4544
2023-05-06T12:53:09.720Z,21.1747
2023-05-06T12:54:12.285Z,21.2673
2023-05-06T12:55:14.836Z,21.5142